createdAt,value
2019-01-13T00:01:22.133Z,101031.91
2019-01-13T00:04:50.077Z,101021.00
2019-01-13T00:08:15.643Z,101018.25
2019-01-13T00:11:41.233Z,101030.27
2019-01-13T00:15:07.574Z,101022.73
2019-01-13T00:18:36.053Z,101019.12
2019-01-13T00:22:01.656Z,101012.52
2019-01-13T00:25:27.245Z,101011.96
2019-01-13T00:28:52.866Z,101014.36
2019-01-13T00:32:18.423Z,101020.89
2019-01-13T00:35:43.996Z,101030.37
2019-01-13T00:39:10.404Z,101021.19
2019-01-13T00:42:35.921Z,101015.43
2019-01-13T00:46:01.529Z,101020.83
2019-01-13T00:49:27.335Z,101018.97
2019-01-13T00:52:52.903Z,101019.36
2019-01-13T00:56:18.511Z,101021.81
2019-01-13T00:59:44.130Z,101016.42
2019-01-13T01:03:09.680Z,100993.17
2019-01-13T01:06:35.300Z,100994.91
2019-01-13T01:10:00.875Z,100998.76
2019-01-13T01:13:26.511Z,100991.03
2019-01-13T01:16:52.056Z,100990.59
2019-01-13T01:20:19.183Z,100988.57
2019-01-13T01:23:44.804Z,100985.41
2019-01-13T01:27:10.628Z,100985.84
2019-01-13T01:30:36.143Z,100996.09
2019-01-13T01:34:01.746Z,100994.09
2019-01-13T01:37:27.341Z,100994.75
2019-01-13T01:40:52.884Z,100986.36
2019-01-13T01:44:18.437Z,100976.31
2019-01-13T01:47:43.990Z,100976.63
2019-01-13T01:51:09.564Z,100969.02
2019-01-13T01:54:35.125Z,100973.12
2019-01-13T01:58:00.719Z,100971.00
2019-01-13T02:01:26.304Z,100959.13
2019-01-13T02:04:51.885Z,100961.91
2019-01-13T02:08:17.454Z,100958.87
2019-01-13T02:11:43.060Z,100944.92
2019-01-13T02:15:12.481Z,100929.61
2019-01-13T02:18:38.055Z,100913.72
2019-01-13T02:22:03.863Z,100912.33
2019-01-13T02:25:30.448Z,100915.40
2019-01-13T02:28:56.078Z,100915.40
2019-01-13T02:32:21.743Z,100916.98
2019-01-13T02:35:47.333Z,100925.25
2019-01-13T02:39:12.895Z,100917.50
2019-01-13T02:42:38.537Z,100897.24
2019-01-13T02:46:04.099Z,100909.44
2019-01-13T02:49:29.676Z,100918.29
2019-01-13T02:52:55.599Z,100917.08
2019-01-13T02:56:22.419Z,100922.65
2019-01-13T02:59:47.980Z,100927.31
2019-01-13T03:03:13.515Z,100938.34
2019-01-13T03:06:39.076Z,100934.27
2019-01-13T03:10:06.522Z,100928.36
2019-01-13T03:13:32.367Z,100933.55
2019-01-13T03:16:57.877Z,100932.11
2019-01-13T03:20:23.650Z,100921.64
2019-01-13T03:23:49.249Z,100919.59
2019-01-13T03:27:14.774Z,100913.40
2019-01-13T03:30:40.605Z,100915.06
2019-01-13T03:34:06.157Z,100903.19
2019-01-13T03:37:31.711Z,100876.91
2019-01-13T03:40:57.583Z,100870.89
2019-01-13T03:44:23.161Z,100859.30
2019-01-13T03:47:48.702Z,100854.78
2019-01-13T03:51:14.270Z,100849.04
2019-01-13T03:54:39.835Z,100849.17
2019-01-13T03:58:05.401Z,100842.94
2019-01-13T04:01:30.922Z,100826.28
2019-01-13T04:04:56.987Z,100809.21
2019-01-13T04:08:22.646Z,100812.97
2019-01-13T04:11:48.230Z,100810.07
2019-01-13T04:15:39.687Z,100807.84
2019-01-13T04:19:05.272Z,100795.71
2019-01-13T04:22:30.791Z,100783.72
2019-01-13T04:25:56.379Z,100784.39
2019-01-13T04:29:22.224Z,100767.94
2019-01-13T04:32:47.809Z,100762.73
2019-01-13T04:36:13.365Z,100755.47
2019-01-13T04:39:38.941Z,100756.56
2019-01-13T04:43:04.488Z,100756.55
2019-01-13T04:46:30.048Z,100746.74
2019-01-13T04:49:55.851Z,100732.53
2019-01-13T04:53:21.435Z,100736.34
2019-01-13T04:56:47.257Z,100720.55
2019-01-13T05:00:19.908Z,100700.34
2019-01-13T05:03:45.829Z,100697.76
2019-01-13T05:07:11.453Z,100685.58
2019-01-13T05:10:37.328Z,100687.67
2019-01-13T05:14:03.248Z,100681.89
2019-01-13T05:17:29.088Z,100669.38
2019-01-13T05:20:54.657Z,100653.67
2019-01-13T05:24:20.243Z,100643.50
2019-01-13T05:27:45.782Z,100636.32
2019-01-13T05:31:11.414Z,100641.48
2019-01-13T05:34:36.967Z,100639.37
2019-01-13T05:38:02.587Z,100633.73
2019-01-13T05:41:28.152Z,100623.47
2019-01-13T05:44:53.729Z,100619.43
2019-01-13T05:48:19.644Z,100617.79
2019-01-13T05:51:45.206Z,100620.86
2019-01-13T05:55:12.211Z,100611.83
2019-01-13T05:58:37.786Z,100626.66
2019-01-13T06:02:03.379Z,100619.86
2019-01-13T06:05:28.982Z,100617.88
2019-01-13T06:08:54.655Z,100617.41
2019-01-13T06:12:20.398Z,100610.00
2019-01-13T06:15:46.104Z,100612.80
2019-01-13T06:19:11.836Z,100609.44
2019-01-13T06:22:37.618Z,100609.33
2019-01-13T06:26:03.418Z,100602.63
2019-01-13T06:29:28.923Z,100595.83
2019-01-13T06:32:55.214Z,100588.92
2019-01-13T06:36:20.767Z,100584.97
2019-01-13T06:39:46.319Z,100588.52
2019-01-13T06:43:11.855Z,100579.39
2019-01-13T06:46:37.549Z,100577.45
2019-01-13T06:50:03.599Z,100584.58
2019-01-13T06:53:29.172Z,100573.03
2019-01-13T06:56:54.983Z,100576.92
2019-01-13T07:00:26.313Z,100574.55
2019-01-13T07:03:52.627Z,100567.97
2019-01-13T07:07:18.205Z,100572.77
2019-01-13T07:10:44.129Z,100555.11
2019-01-13T07:14:09.929Z,100562.77
2019-01-13T07:17:35.518Z,100566.28
2019-01-13T07:21:01.173Z,100553.19
2019-01-13T07:24:26.746Z,100556.73
2019-01-13T07:27:52.405Z,100549.69
2019-01-13T07:31:17.961Z,100538.44
2019-01-13T07:34:43.743Z,100541.40
2019-01-13T07:38:09.319Z,100527.42
2019-01-13T07:41:34.889Z,100525.17
2019-01-13T07:45:00.593Z,100521.98
2019-01-13T07:48:26.157Z,100528.76
2019-01-13T07:51:51.708Z,100523.40
2019-01-13T07:55:20.149Z,100516.23
2019-01-13T07:58:45.739Z,100525.23
2019-01-13T08:02:17.684Z,100525.20
2019-01-13T08:05:38.856Z,100520.81
2019-01-13T08:09:05.610Z,100512.34
2019-01-13T08:12:31.217Z,100521.52
2019-01-13T08:15:57.123Z,100508.73
2019-01-13T08:19:22.929Z,100502.36
2019-01-13T08:22:48.529Z,100497.09
2019-01-13T08:26:14.138Z,100514.66
2019-01-13T08:29:39.682Z,100513.65
2019-01-13T08:33:05.209Z,100505.75
2019-01-13T08:36:31.032Z,100504.74
2019-01-13T08:39:56.590Z,100500.66
2019-01-13T08:43:22.132Z,100498.61
2019-01-13T08:46:47.678Z,100504.45
2019-01-13T08:50:23.351Z,100507.94
2019-01-13T08:53:48.932Z,100497.70
2019-01-13T08:57:14.701Z,100487.62
2019-01-13T09:00:40.342Z,100493.45
2019-01-13T09:04:05.891Z,100487.39
2019-01-13T09:07:31.439Z,100480.89
2019-01-13T09:11:02.530Z,100486.01
2019-01-13T09:14:28.099Z,100464.77
2019-01-13T09:17:53.653Z,100456.39
2019-01-13T09:21:19.192Z,100453.33
2019-01-13T09:24:44.768Z,100449.11
2019-01-13T09:28:10.767Z,100444.20
2019-01-13T09:31:36.593Z,100441.05
2019-01-13T09:35:02.163Z,100442.17
2019-01-13T09:38:28.006Z,100441.53
2019-01-13T09:41:53.590Z,100437.62
2019-01-13T09:45:19.160Z,100440.84
2019-01-13T09:48:44.778Z,100446.00
2019-01-13T09:52:10.277Z,100437.36
2019-01-13T09:55:35.839Z,100427.22
2019-01-13T09:59:01.646Z,100417.61
2019-01-13T10:02:27.178Z,100399.00
2019-01-13T10:05:52.737Z,100392.95
2019-01-13T10:09:18.313Z,100393.92
2019-01-13T10:12:43.906Z,100399.33
2019-01-13T10:16:09.492Z,100410.63
2019-01-13T10:19:35.073Z,100414.77
2019-01-13T10:23:00.662Z,100415.05
2019-01-13T10:26:26.254Z,100410.55
2019-01-13T10:29:51.810Z,100395.44
2019-01-13T10:33:17.370Z,100402.92
2019-01-13T10:36:42.986Z,100398.82
2019-01-13T10:40:12.503Z,100389.16
2019-01-13T10:43:38.080Z,100365.36
2019-01-13T10:47:03.629Z,100351.26
2019-01-13T10:50:31.312Z,100349.71
2019-01-13T10:53:56.851Z,100343.00
2019-01-13T10:57:22.522Z,100353.58
2019-01-13T11:00:48.364Z,100333.70
2019-01-13T11:04:13.902Z,100322.06
2019-01-13T11:07:39.438Z,100329.61
2019-01-13T11:11:05.291Z,100331.17
2019-01-13T11:14:30.870Z,100314.70
2019-01-13T11:17:56.458Z,100313.67
2019-01-13T11:21:22.045Z,100310.92
2019-01-13T11:24:47.597Z,100305.61
2019-01-13T11:28:13.177Z,100294.43
2019-01-13T11:31:38.723Z,100290.30
2019-01-13T11:35:04.388Z,100275.91
2019-01-13T11:38:30.007Z,100273.52
2019-01-13T11:41:55.533Z,100278.02
2019-01-13T11:45:21.149Z,100265.48
2019-01-13T11:48:46.734Z,100262.49
2019-01-13T11:52:12.291Z,100259.52
2019-01-13T11:55:38.163Z,100247.38
2019-01-13T11:59:06.849Z,100235.75
2019-01-13T12:02:32.903Z,100242.20
2019-01-13T12:05:58.591Z,100215.12
2019-01-13T12:09:24.108Z,100220.45
2019-01-13T12:12:49.891Z,100216.33
2019-01-13T12:16:15.486Z,100218.14
2019-01-13T12:19:41.050Z,100212.26
2019-01-13T12:23:06.682Z,100204.91
2019-01-13T12:26:32.251Z,100201.78
2019-01-13T12:29:59.548Z,100199.90
2019-01-13T12:33:25.098Z,100184.47
2019-01-13T12:36:50.717Z,100190.86
2019-01-13T12:40:18.427Z,100179.10
2019-01-13T12:43:44.033Z,100188.61
2019-01-13T12:47:15.682Z,100182.40
2019-01-13T12:50:41.304Z,100175.55
2019-01-13T12:54:07.260Z,100166.16
2019-01-13T12:57:32.963Z,100167.84
2019-01-13T13:00:58.702Z,100154.07
2019-01-13T13:04:24.288Z,100151.18
2019-01-13T13:07:50.029Z,100146.86
2019-01-13T13:11:15.990Z,100152.65
2019-01-13T13:14:42.146Z,100146.72
2019-01-13T13:18:07.847Z,100128.98
2019-01-13T13:21:33.402Z,100106.34
2019-01-13T13:24:58.945Z,100105.92
2019-01-13T13:28:24.783Z,100113.47
2019-01-13T13:31:50.348Z,100116.02
2019-01-13T13:35:16.189Z,100094.76
2019-01-13T13:38:42.041Z,100104.95
2019-01-13T13:42:07.784Z,100123.95
2019-01-13T13:45:33.352Z,100122.45
2019-01-13T13:48:58.934Z,100082.27
2019-01-13T13:52:24.467Z,100069.97
2019-01-13T13:55:50.039Z,100080.22
2019-01-13T13:59:15.636Z,100076.97
2019-01-13T14:02:41.206Z,100066.93
2019-01-13T14:06:06.826Z,100066.93
2019-01-13T14:09:32.543Z,100054.81
2019-01-13T14:12:58.348Z,100076.94
2019-01-13T14:16:24.304Z,100075.45
2019-01-13T14:19:50.342Z,100072.44
2019-01-13T14:23:16.365Z,100067.47
2019-01-13T14:26:42.145Z,100059.06
2019-01-13T14:30:14.681Z,100046.98
2019-01-13T14:33:40.552Z,100058.82
2019-01-13T14:37:06.269Z,100043.27
2019-01-13T14:40:32.047Z,100042.75
2019-01-13T14:43:58.144Z,100066.28
2019-01-13T14:47:23.871Z,100061.49
2019-01-13T14:50:49.831Z,100057.47
2019-01-13T14:54:18.467Z,100032.84
2019-01-13T14:57:44.245Z,100052.55
2019-01-13T15:01:13.625Z,100048.50
2019-01-13T15:04:40.702Z,100042.34
2019-01-13T15:08:07.622Z,100047.36
2019-01-13T15:11:34.060Z,100038.42
2019-01-13T15:15:00.461Z,100043.81
2019-01-13T15:18:27.019Z,100048.50
2019-01-13T15:21:56.384Z,100027.02
2019-01-13T15:25:31.481Z,100056.41
2019-01-13T15:28:59.393Z,100038.27
2019-01-13T15:32:25.219Z,100037.16
2019-01-13T15:35:50.896Z,100047.23
2019-01-13T15:39:16.493Z,100035.60
2019-01-13T15:42:42.382Z,100039.36
2019-01-13T15:46:07.940Z,100044.47
2019-01-13T15:49:33.599Z,100046.34
2019-01-13T15:52:59.342Z,100048.75
2019-01-13T15:56:24.939Z,100041.02
2019-01-13T15:59:50.587Z,100036.47
2019-01-13T16:03:16.197Z,100025.89
2019-01-13T16:06:41.816Z,100034.67
2019-01-13T16:10:12.315Z,100027.77
2019-01-13T16:13:38.176Z,100042.02
2019-01-13T16:17:03.727Z,100026.88
2019-01-13T16:20:35.857Z,100026.52
2019-01-13T16:24:01.459Z,100023.34
2019-01-13T16:27:27.001Z,100011.39
2019-01-13T16:30:52.813Z,100008.05
2019-01-13T16:34:21.602Z,100002.13
2019-01-13T16:37:45.734Z,99999.56
2019-01-13T16:41:11.413Z,99998.12
2019-01-13T16:44:37.000Z,100005.80
2019-01-13T16:48:03.679Z,99999.32
2019-01-13T16:51:29.587Z,99990.98
2019-01-13T16:54:56.448Z,99993.69
2019-01-13T16:58:22.134Z,99984.88
2019-01-13T17:01:47.780Z,99993.57
2019-01-13T17:05:15.880Z,99975.27
2019-01-13T17:08:41.498Z,99969.27
2019-01-13T17:12:07.984Z,99959.03
2019-01-13T17:15:38.457Z,99960.30
2019-01-13T17:19:04.378Z,99958.61
2019-01-13T17:22:29.949Z,99955.13
2019-01-13T17:25:55.523Z,99970.57
2019-01-13T17:29:21.092Z,99963.42
2019-01-13T17:32:46.729Z,99970.35
2019-01-13T17:36:12.364Z,99962.52
2019-01-13T17:39:37.925Z,99951.48
2019-01-13T17:43:03.524Z,99953.05
2019-01-13T17:46:29.075Z,99947.87
2019-01-13T17:49:54.926Z,99941.45
2019-01-13T17:53:20.653Z,99944.61
2019-01-13T17:56:46.575Z,99948.19
2019-01-13T18:00:18.036Z,99927.14
2019-01-13T18:03:46.322Z,99941.33
2019-01-13T18:07:11.915Z,99936.16
2019-01-13T18:10:37.477Z,99931.37
2019-01-13T18:14:03.488Z,99929.62
2019-01-13T18:17:29.620Z,99952.12
2019-01-13T18:20:55.381Z,99978.90
2019-01-13T18:24:20.956Z,99997.77
2019-01-13T18:31:23.473Z,100033.87
2019-01-13T18:35:10.730Z,100025.27
2019-01-13T18:39:14.677Z,100022.39
2019-01-13T18:42:59.497Z,100000.55
2019-01-13T18:46:44.186Z,99997.65
2019-01-13T18:50:28.788Z,100002.35
2019-01-13T18:54:13.450Z,99999.20
2019-01-13T18:57:58.100Z,99994.34
2019-01-13T19:05:51.728Z,100005.24
2019-01-13T19:14:05.189Z,100006.55
2019-01-13T19:25:54.315Z,100017.91
2019-01-13T19:33:30.192Z,100017.09
2019-01-13T19:41:05.785Z,100024.17
2019-01-13T19:45:09.192Z,100028.61
2019-01-13T19:48:54.053Z,100040.32
2019-01-13T19:52:57.524Z,100051.31
2019-01-13T19:56:35.543Z,100060.95
2019-01-13T20:01:03.692Z,100068.74
2019-01-13T20:04:48.298Z,100058.92
2019-01-13T20:12:22.694Z,100060.23
2019-01-13T20:16:07.380Z,100063.59
2019-01-13T20:19:52.150Z,100063.66
2019-01-13T20:23:37.288Z,100070.53
2019-01-13T20:27:22.240Z,100078.32
2019-01-13T20:39:21.271Z,100089.25
2019-01-13T20:43:06.404Z,100097.69
2019-01-13T20:46:51.516Z,100097.14
2019-01-13T20:50:39.589Z,100092.63
2019-01-13T20:54:24.538Z,100095.75
2019-01-13T20:58:01.285Z,100096.64
2019-01-13T21:01:45.990Z,100096.34
2019-01-13T21:05:30.635Z,100096.37
2019-01-13T21:09:15.610Z,100112.58
2019-01-13T21:13:00.247Z,100097.91
2019-01-13T21:17:03.736Z,100104.55
2019-01-13T21:20:48.355Z,100116.82
2019-01-13T21:24:33.401Z,100119.98
2019-01-13T21:32:22.009Z,100130.70
2019-01-13T21:36:06.751Z,100133.76
2019-01-13T21:39:51.375Z,100134.56
2019-01-13T21:47:39.563Z,100147.95
2019-01-13T21:51:24.189Z,100144.56
2019-01-13T21:55:01.084Z,100147.20
2019-01-13T21:58:45.699Z,100147.17
2019-01-13T22:02:30.360Z,100154.78
2019-01-13T22:06:15.091Z,100150.03
2019-01-13T22:09:59.999Z,100162.00
2019-01-13T22:13:44.634Z,100153.55
2019-01-13T22:17:29.565Z,100164.69
2019-01-13T22:21:14.156Z,100170.19
2019-01-13T22:24:58.782Z,100170.27
2019-01-13T22:28:43.734Z,100180.23
2019-01-13T22:32:28.364Z,100165.92
2019-01-13T22:36:13.304Z,100167.93
2019-01-13T22:39:58.292Z,100172.97
2019-01-13T22:43:42.971Z,100186.73
2019-01-13T22:47:27.578Z,100195.88
2019-01-13T22:51:12.216Z,100207.63
2019-01-13T22:54:49.459Z,100207.89
2019-01-13T22:58:34.095Z,100206.55
2019-01-13T23:02:18.708Z,100209.93
2019-01-13T23:06:03.708Z,100194.93
2019-01-13T23:09:48.695Z,100218.73
2019-01-13T23:13:33.394Z,100208.22
2019-01-13T23:17:18.083Z,100211.73
2019-01-13T23:21:02.721Z,100217.19
2019-01-13T23:24:47.412Z,100212.03
2019-01-13T23:28:32.068Z,100217.97
2019-01-13T23:32:16.703Z,100219.78
2019-01-13T23:36:02.960Z,100235.75
2019-01-13T23:39:47.623Z,100243.72
2019-01-13T23:43:32.305Z,100252.92
2019-01-13T23:47:16.987Z,100253.50
2019-01-13T23:51:01.752Z,100243.47
2019-01-13T23:54:46.790Z,100246.70
2019-01-13T23:58:31.415Z,100234.72
